Time;durP1;ratioP1;P1;durP2;ratioP2;P2;SDS_P1;SDS_P2;PMS_P1;PMS_P2;Temp;Humidity;BMP_temperature;BMP_pressure;BME280_temperature;BME280_humidity;BME280_pressure;Samples;Min_cycle;Max_cycle;Signal;HPM_P1;HPM_P2
2022/10/12 00:01:51;;;;;;;16.45;7.18;;;9.20;99.90;;;;;;4993671;28;20419;-80
2022/10/12 00:04:18;;;;;;;15.60;7.45;;;9.20;99.90;;;;;;4998393;28;20578;-80
2022/10/12 00:06:44;;;;;;;16.17;7.30;;;9.20;99.90;;;;;;5009530;28;20053;-80
2022/10/12 00:09:11;;;;;;;14.30;7.22;;;9.20;99.90;;;;;;4993727;28;20046;-80
2022/10/12 00:11:39;;;;;;;15.07;7.03;;;9.20;99.90;;;;;;5023276;28;20050;-80
2022/10/12 00:14:07;;;;;;;14.95;7.75;;;9.20;99.90;;;;;;5011050;28;20060;-80
2022/10/12 00:16:35;;;;;;;15.68;7.53;;;9.20;99.90;;;;;;5010788;28;20526;-80
2022/10/12 00:19:02;;;;;;;18.38;7.80;;;9.20;99.90;;;;;;5011040;28;20052;-80
2022/10/12 00:21:30;;;;;;;19.63;7.97;;;9.20;99.90;;;;;;5010563;28;20306;-80
2022/10/12 00:23:57;;;;;;;11.82;7.35;;;9.20;99.90;;;;;;5004719;28;20053;-80
2022/10/12 00:26:25;;;;;;;19.70;6.82;;;9.20;99.90;;;;;;4993394;28;20061;-80
2022/10/12 00:28:55;;;;;;;11.48;5.75;;;9.10;99.90;;;;;;5010752;28;20042;-80
2022/10/12 00:31:22;;;;;;;12.60;6.20;;;9.10;99.90;;;;;;4997333;28;20498;-80
2022/10/12 00:33:52;;;;;;;10.45;5.95;;;9.10;99.90;;;;;;4994108;28;20454;-80
2022/10/12 00:36:22;;;;;;;13.98;5.45;;;9.10;99.90;;;;;;5010712;28;20050;-80
2022/10/12 00:38:50;;;;;;;9.60;5.38;;;9.10;99.90;;;;;;5007709;28;20046;-81
2022/10/12 00:41:18;;;;;;;12.02;5.57;;;9.10;99.90;;;;;;5030619;23;20155;-77
2022/10/12 00:43:46;;;;;;;14.43;5.25;;;9.00;99.90;;;;;;5049773;28;20519;-77
2022/10/12 00:46:18;;;;;;;10.30;5.78;;;9.00;99.90;;;;;;5048422;28;20051;-78
2022/10/12 00:48:48;;;;;;;10.82;5.30;;;9.00;99.90;;;;;;5041001;28;20057;-77
2022/10/12 00:51:16;;;;;;;13.63;5.57;;;9.00;99.90;;;;;;5029831;28;20056;-78
2022/10/12 00:53:47;;;;;;;12.45;5.55;;;8.90;99.90;;;;;;5049584;28;20448;-77
2022/10/12 00:56:17;;;;;;;12.20;5.50;;;8.90;99.90;;;;;;5049171;28;20052;-78
2022/10/12 00:58:45;;;;;;;12.10;5.15;;;8.90;99.90;;;;;;5049439;28;20101;-77
2022/10/12 01:01:19;;;;;;;12.70;5.00;;;8.90;99.90;;;;;;5049461;28;20064;-77
2022/10/12 01:03:46;;;;;;;12.07;5.50;;;8.90;99.90;;;;;;5049299;28;20049;-78
2022/10/12 01:06:14;;;;;;;12.20;4.53;;;8.90;99.90;;;;;;5048866;28;20048;-77
2022/10/12 01:08:42;;;;;;;12.45;4.70;;;8.90;99.90;;;;;;5049351;28;20051;-77
2022/10/12 01:11:12;;;;;;;12.93;4.50;;;8.90;99.90;;;;;;5048836;28;20045;-78
2022/10/12 01:13:39;;;;;;;14.48;5.10;;;8.80;99.90;;;;;;5031061;28;20055;-77
2022/10/12 01:16:11;;;;;;;8.95;4.47;;;8.80;99.90;;;;;;5048730;28;20052;-78
2022/10/12 01:18:43;;;;;;;10.50;4.10;;;8.80;99.90;;;;;;5048857;28;20047;-77
2022/10/12 01:21:19;;;;;;;12.07;4.45;;;8.80;99.90;;;;;;5048797;28;20055;-78
2022/10/12 01:24:07;;;;;;;14.45;4.70;;;8.80;99.90;;;;;;5049155;28;20044;-78
2022/10/12 01:26:54;;;;;;;9.90;4.57;;;8.80;99.90;;;;;;5028938;28;20087;-78
2022/10/12 01:29:37;;;;;;;11.90;5.18;;;8.70;99.90;;;;;;5048298;28;20040;-77
2022/10/12 01:32:11;;;;;;;12.40;5.47;;;8.70;99.90;;;;;;5048750;28;20040;-77
2022/10/12 01:34:42;;;;;;;13.85;6.20;;;8.70;99.90;;;;;;5048545;28;20060;-78
2022/10/12 01:37:14;;;;;;;11.60;5.40;;;8.70;99.90;;;;;;5049052;28;20075;-78
2022/10/12 01:39:45;;;;;;;11.38;6.00;;;8.70;99.90;;;;;;5048855;28;20404;-78
2022/10/12 01:42:16;;;;;;;13.40;5.93;;;8.70;99.90;;;;;;5048161;28;20043;-77
2022/10/12 01:44:43;;;;;;;13.15;6.13;;;8.70;99.90;;;;;;5047654;28;20572;-78
2022/10/12 01:47:11;;;;;;;16.35;6.32;;;8.60;99.90;;;;;;5048397;28;20052;-78
2022/10/12 01:49:38;;;;;;;11.98;6.15;;;8.60;99.90;;;;;;5048329;28;20044;-77
2022/10/12 01:52:27;;;;;;;10.90;5.80;;;8.70;99.90;;;;;;5048581;28;20059;-76
2022/10/12 01:55:11;;;;;;;13.43;5.55;;;8.60;99.90;;;;;;5048212;28;20048;-76
2022/10/12 01:57:47;;;;;;;11.85;6.13;;;8.60;99.90;;;;;;5048421;28;20128;-77
2022/10/12 02:00:15;;;;;;;13.15;5.85;;;8.60;99.90;;;;;;5047958;28;20444;-76
2022/10/12 02:02:50;;;;;;;11.32;5.30;;;8.60;99.90;;;;;;5048628;28;20498;-76
2022/10/12 02:05:26;;;;;;;13.30;5.35;;;8.60;99.90;;;;;;5048354;28;20045;-76
2022/10/12 02:07:58;;;;;;;11.55;5.75;;;8.60;99.90;;;;;;5048651;28;20806;-76
2022/10/12 02:10:28;;;;;;;14.40;5.53;;;8.50;99.90;;;;;;5048703;28;20067;-76
2022/10/12 02:12:57;;;;;;;11.77;5.25;;;8.50;99.90;;;;;;5048435;28;20049;-76
2022/10/12 02:15:26;;;;;;;9.73;4.65;;;8.50;99.90;;;;;;5048072;28;20045;-76
2022/10/12 02:17:54;;;;;;;12.63;5.10;;;8.50;99.90;;;;;;5048581;28;20474;-77
2022/10/12 02:20:22;;;;;;;13.75;4.88;;;8.50;99.90;;;;;;5048075;28;20391;-77
2022/10/12 02:22:50;;;;;;;12.55;5.28;;;8.50;99.90;;;;;;5048077;28;20041;-76
2022/10/12 02:25:20;;;;;;;11.77;5.40;;;8.50;99.90;;;;;;5048130;28;20079;-76
2022/10/12 02:27:51;;;;;;;13.57;5.45;;;8.50;99.90;;;;;;5048139;28;20509;-76
2022/10/12 02:30:18;;;;;;;13.55;4.90;;;8.50;99.90;;;;;;5048226;28;20385;-77
2022/10/12 02:32:50;;;;;;;10.40;4.78;;;8.50;99.90;;;;;;5048430;28;20404;-76
2022/10/12 02:35:24;;;;;;;10.57;4.53;;;8.50;99.90;;;;;;5048072;28;20143;-76
2022/10/12 02:37:55;;;;;;;11.98;4.82;;;8.50;99.90;;;;;;5048182;28;20056;-77
2022/10/12 02:40:25;;;;;;;10.35;4.60;;;8.50;99.90;;;;;;5048196;28;20045;-76
2022/10/12 02:42:55;;;;;;;13.25;4.55;;;8.50;99.90;;;;;;5047513;28;20045;-77
2022/10/12 02:45:23;;;;;;;12.10;5.30;;;8.40;99.90;;;;;;5029233;28;20464;-76
2022/10/12 02:47:53;;;;;;;12.10;5.63;;;8.50;99.90;;;;;;5046897;28;20049;-77
2022/10/12 02:50:22;;;;;;;12.27;5.30;;;8.50;99.90;;;;;;5047396;28;20041;-76
2022/10/12 02:52:50;;;;;;;13.85;5.60;;;8.40;99.90;;;;;;5046974;28;20052;-76
2022/10/12 02:55:17;;;;;;;9.60;4.90;;;8.40;99.90;;;;;;5046686;28;20067;-76
2022/10/12 02:57:44;;;;;;;11.43;5.22;;;8.40;99.90;;;;;;5050119;28;20049;-76
2022/10/12 03:00:12;;;;;;;13.52;4.97;;;8.40;99.90;;;;;;5050116;28;20060;-77
2022/10/12 03:02:39;;;;;;;13.80;4.82;;;8.40;99.90;;;;;;5050247;28;20044;-76
2022/10/12 03:05:06;;;;;;;13.02;4.85;;;8.40;99.90;;;;;;5050139;28;20056;-76
2022/10/12 03:07:35;;;;;;;11.23;4.75;;;8.40;99.90;;;;;;5050336;28;20434;-76
2022/10/12 03:10:01;;;;;;;11.10;4.75;;;8.40;99.90;;;;;;5050104;28;20048;-76
2022/10/12 03:12:28;;;;;;;8.50;4.30;;;8.40;99.90;;;;;;5050367;28;20056;-76
2022/10/12 03:14:55;;;;;;;9.57;4.13;;;8.40;99.90;;;;;;5049839;28;20048;-77
2022/10/12 03:17:22;;;;;;;11.95;4.78;;;8.40;99.90;;;;;;5050160;28;20048;-77
2022/10/12 03:19:49;;;;;;;9.32;4.18;;;8.30;99.90;;;;;;5050328;28;20033;-76
2022/10/12 03:22:16;;;;;;;11.15;4.57;;;8.30;99.90;;;;;;5050118;28;20615;-76
2022/10/12 03:24:44;;;;;;;8.68;4.75;;;8.30;99.90;;;;;;5049802;28;20508;-76
2022/10/12 03:27:11;;;;;;;12.70;4.88;;;8.30;99.90;;;;;;5050268;28;20051;-77
2022/10/12 03:29:38;;;;;;;8.93;4.85;;;8.30;99.90;;;;;;5049795;28;20493;-77
2022/10/12 03:32:05;;;;;;;10.27;4.75;;;8.30;99.90;;;;;;5031683;28;20045;-77
2022/10/12 03:34:32;;;;;;;12.80;5.22;;;8.30;99.90;;;;;;5031372;28;20060;-77
2022/10/12 03:36:58;;;;;;;8.23;4.72;;;8.30;99.90;;;;;;5049642;28;20072;-76
2022/10/12 03:39:25;;;;;;;10.93;4.75;;;8.30;99.90;;;;;;5031660;28;20045;-77
2022/10/12 03:41:54;;;;;;;12.43;4.60;;;8.30;99.90;;;;;;5010874;28;1118557;-77
2022/10/12 03:44:21;;;;;;;11.23;4.45;;;8.30;99.90;;;;;;5050701;28;20648;-76
2022/10/12 03:46:47;;;;;;;9.80;4.85;;;8.30;99.90;;;;;;5050644;28;20044;-76
2022/10/12 03:49:14;;;;;;;10.05;5.00;;;8.30;99.90;;;;;;5032512;28;20049;-77
2022/10/12 03:51:41;;;;;;;9.25;4.85;;;8.20;99.90;;;;;;5050799;28;20071;-76
2022/10/12 03:54:08;;;;;;;10.27;4.78;;;8.20;99.90;;;;;;5050661;28;20045;-77
2022/10/12 03:56:35;;;;;;;10.25;4.85;;;8.20;99.90;;;;;;5049891;28;20044;-76
2022/10/12 03:59:03;;;;;;;10.00;5.13;;;8.20;99.90;;;;;;5048690;28;20460;-77
2022/10/12 04:01:30;;;;;;;12.80;5.25;;;8.20;99.90;;;;;;5050354;28;20512;-77
2022/10/12 04:03:57;;;;;;;9.20;5.05;;;8.20;99.90;;;;;;5050420;28;20045;-78
2022/10/12 04:06:24;;;;;;;10.48;5.07;;;8.20;99.90;;;;;;5050176;28;20052;-79
2022/10/12 04:08:51;;;;;;;10.23;4.88;;;8.20;99.90;;;;;;5049835;28;20048;-80
2022/10/12 04:11:19;;;;;;;11.07;5.05;;;8.20;99.90;;;;;;5050280;28;20045;-80
2022/10/12 04:13:46;;;;;;;12.45;4.82;;;8.10;99.90;;;;;;5050152;28;20041;-81
2022/10/12 04:16:14;;;;;;;10.88;4.95;;;8.10;99.90;;;;;;5049859;28;20055;-82
2022/10/12 04:18:41;;;;;;;9.80;4.97;;;8.10;99.90;;;;;;5050289;28;20049;-82
2022/10/12 04:21:12;;;;;;;10.27;5.03;;;8.10;99.90;;;;;;5050031;28;20094;-77
2022/10/12 04:23:39;;;;;;;9.60;4.82;;;8.10;99.90;;;;;;5049917;28;20144;-80
2022/10/12 04:26:06;;;;;;;10.48;4.68;;;8.10;99.90;;;;;;5050081;28;20045;-80
2022/10/12 04:28:33;;;;;;;9.98;4.53;;;8.10;99.90;;;;;;5050146;28;20437;-79
2022/10/12 04:31:00;;;;;;;11.23;5.15;;;8.10;99.90;;;;;;5049937;28;20150;-79
2022/10/12 04:33:28;;;;;;;8.80;4.72;;;8.20;99.90;;;;;;5050184;28;20562;-79
2022/10/12 04:35:55;;;;;;;11.15;4.72;;;8.10;99.90;;;;;;5049457;28;20052;-79
2022/10/12 04:38:22;;;;;;;10.98;4.70;;;8.20;99.90;;;;;;5049835;28;20547;-79
2022/10/12 04:40:49;;;;;;;8.00;4.35;;;8.20;99.90;;;;;;5049795;28;20492;-79
2022/10/12 04:43:17;;;;;;;11.68;5.18;;;8.20;99.90;;;;;;5049867;28;20053;-79
2022/10/12 04:45:44;;;;;;;10.43;5.00;;;8.20;99.90;;;;;;5049325;28;20055;-79
2022/10/12 04:48:11;;;;;;;11.80;5.47;;;8.30;99.90;;;;;;5049694;28;20053;-79
2022/10/12 04:50:39;;;;;;;11.48;5.15;;;8.30;99.90;;;;;;5049123;28;20048;-81
2022/10/12 04:53:06;;;;;;;10.82;5.10;;;8.30;99.90;;;;;;5049490;28;20493;-79
2022/10/12 04:55:33;;;;;;;9.95;5.05;;;8.30;99.90;;;;;;5049294;28;20048;-80
2022/10/12 04:58:00;;;;;;;10.93;5.30;;;8.30;99.90;;;;;;5049214;28;20051;-79
2022/10/12 05:00:29;;;;;;;13.05;4.75;;;8.30;99.90;;;;;;5049059;28;20133;-79
2022/10/12 05:02:56;;;;;;;11.77;5.22;;;8.30;99.90;;;;;;5049279;28;20445;-79
2022/10/12 05:05:24;;;;;;;10.68;5.05;;;8.30;99.90;;;;;;5048875;28;20045;-78
2022/10/12 05:07:52;;;;;;;10.90;4.95;;;8.30;99.90;;;;;;5031118;28;20048;-77
2022/10/12 05:10:19;;;;;;;11.13;4.82;;;8.40;99.90;;;;;;5049524;28;20047;-77
2022/10/12 05:12:46;;;;;;;9.98;5.65;;;8.40;99.90;;;;;;5049151;28;20501;-78
2022/10/12 05:15:13;;;;;;;8.63;5.13;;;8.40;99.90;;;;;;5048973;28;20055;-78
2022/10/12 05:17:40;;;;;;;11.20;5.07;;;8.40;99.90;;;;;;5049328;28;20058;-79
2022/10/12 05:20:08;;;;;;;9.90;5.38;;;8.40;99.90;;;;;;5047938;28;20055;-79
2022/10/12 05:22:35;;;;;;;12.65;5.30;;;8.40;99.90;;;;;;5048435;28;20044;-81
2022/10/12 05:25:05;;;;;;;11.32;5.68;;;8.40;99.90;;;;;;5048078;28;20133;-80
2022/10/12 05:27:31;;;;;;;15.02;6.13;;;8.50;99.90;;;;;;5031188;28;20052;-80
2022/10/12 05:29:58;;;;;;;20.70;6.53;;;8.50;99.90;;;;;;5048631;28;20040;-80
2022/10/12 05:32:25;;;;;;;14.85;7.60;;;8.50;99.90;;;;;;5046703;28;20049;-80
2022/10/12 05:34:53;;;;;;;15.73;7.53;;;8.50;99.90;;;;;;5048633;28;20056;-80
2022/10/12 05:37:20;;;;;;;28.45;11.82;;;8.50;99.90;;;;;;5048982;28;20072;-80
2022/10/12 05:39:48;;;;;;;21.35;9.63;;;8.50;99.90;;;;;;5030843;28;20045;-80
2022/10/12 05:42:16;;;;;;;14.27;7.00;;;8.60;99.90;;;;;;5048487;28;20489;-78
2022/10/12 05:44:43;;;;;;;11.52;6.18;;;8.50;99.90;;;;;;5048798;28;20055;-81
2022/10/12 05:47:10;;;;;;;13.75;6.50;;;8.50;99.90;;;;;;5048906;28;20048;-83
2022/10/12 05:49:37;;;;;;;15.50;6.22;;;8.50;99.90;;;;;;5048935;28;20036;-83
2022/10/12 05:52:04;;;;;;;14.32;5.60;;;8.40;99.90;;;;;;5048608;28;20056;-81
2022/10/12 05:54:31;;;;;;;10.93;5.63;;;8.40;99.90;;;;;;5048785;28;20049;-81
2022/10/12 05:56:58;;;;;;;14.50;5.70;;;8.40;99.90;;;;;;5048850;28;20049;-80
2022/10/12 05:59:26;;;;;;;12.82;5.45;;;8.40;99.90;;;;;;5048544;28;20109;-81
2022/10/12 06:01:53;;;;;;;10.82;5.55;;;8.40;99.90;;;;;;5048579;28;20045;-81
2022/10/12 06:04:20;;;;;;;11.65;5.38;;;8.40;99.90;;;;;;5048421;28;20040;-81
2022/10/12 06:06:47;;;;;;;13.98;5.55;;;8.30;99.90;;;;;;5048586;28;20055;-82
2022/10/12 06:09:14;;;;;;;14.90;5.50;;;8.30;99.90;;;;;;5030600;28;20049;-81
2022/10/12 06:11:40;;;;;;;10.52;5.25;;;8.30;99.90;;;;;;5048626;28;20864;-80
2022/10/12 06:14:07;;;;;;;12.43;5.22;;;8.30;99.90;;;;;;5048644;28;20048;-81
2022/10/12 06:16:36;;;;;;;8.85;4.88;;;8.30;99.90;;;;;;5046506;28;20069;-79
2022/10/12 06:19:03;;;;;;;9.48;4.93;;;8.30;99.90;;;;;;5048597;28;20118;-78
2022/10/12 06:21:29;;;;;;;9.90;5.10;;;8.30;99.90;;;;;;5048599;28;20045;-77
2022/10/12 06:23:56;;;;;;;12.45;4.95;;;8.30;99.90;;;;;;5048656;28;20055;-77
2022/10/12 06:26:23;;;;;;;12.30;5.40;;;8.30;99.90;;;;;;5048118;28;20041;-77
2022/10/12 06:28:50;;;;;;;13.25;6.55;;;8.30;99.90;;;;;;5048650;28;20057;-77
2022/10/12 06:31:17;;;;;;;12.90;6.28;;;8.30;99.90;;;;;;5049456;28;20515;-77
2022/10/12 06:33:45;;;;;;;12.05;5.80;;;8.30;99.90;;;;;;5046435;28;20040;-77
2022/10/12 06:36:12;;;;;;;12.70;5.70;;;8.30;99.90;;;;;;5051514;28;20041;-77
2022/10/12 06:38:39;;;;;;;19.90;11.25;;;8.30;99.90;;;;;;5051911;28;20049;-77
2022/10/12 06:41:06;;;;;;;14.23;6.97;;;8.30;99.90;;;;;;5062658;22;20023;-83
2022/10/12 06:43:33;;;;;;;13.23;6.57;;;8.30;99.90;;;;;;5006337;28;20052;-83
2022/10/12 06:46:00;;;;;;;11.95;6.47;;;8.30;99.90;;;;;;5006911;28;20039;-83
2022/10/12 06:48:27;;;;;;;14.48;7.22;;;8.30;99.90;;;;;;5011629;28;20042;-83
2022/10/12 06:50:56;;;;;;;9.95;6.18;;;8.40;99.90;;;;;;5006147;28;20033;-83
2022/10/12 06:53:24;;;;;;;19.67;7.13;;;8.40;99.90;;;;;;5004009;28;20053;-84
2022/10/12 06:55:51;;;;;;;14.80;6.55;;;8.50;99.90;;;;;;5004724;28;20513;-83
2022/10/12 06:58:18;;;;;;;12.57;5.70;;;8.50;99.90;;;;;;5010731;28;20814;-83
2022/10/12 07:00:45;;;;;;;13.68;6.30;;;8.50;99.90;;;;;;5010498;28;20653;-83
2022/10/12 07:03:12;;;;;;;15.43;6.05;;;8.50;99.90;;;;;;5010802;28;20049;-83
2022/10/12 07:05:39;;;;;;;11.32;5.80;;;8.60;99.90;;;;;;5000349;28;20046;-83
2022/10/12 07:08:07;;;;;;;10.80;5.25;;;8.60;99.90;;;;;;4992458;28;20068;-83
2022/10/12 07:10:34;;;;;;;12.30;5.68;;;8.60;99.90;;;;;;4992516;28;20034;-84
2022/10/12 07:13:01;;;;;;;12.32;5.35;;;8.60;99.90;;;;;;4992365;28;20503;-83
2022/10/12 07:15:28;;;;;;;14.93;6.78;;;8.70;99.90;;;;;;4991852;28;20050;-84
2022/10/12 07:17:55;;;;;;;24.35;9.63;;;8.70;99.90;;;;;;4992063;28;20046;-84
2022/10/12 07:20:22;;;;;;;16.80;8.70;;;8.80;99.90;;;;;;4995372;28;20072;-84
2022/10/12 07:22:49;;;;;;;17.92;7.90;;;8.80;99.90;;;;;;5003930;28;20044;-84
2022/10/12 07:25:17;;;;;;;16.38;8.43;;;8.90;99.90;;;;;;4990249;28;20053;-84
2022/10/12 07:27:47;;;;;;;20.00;9.77;;;8.90;99.90;;;;;;4991318;28;20050;-84
2022/10/12 07:30:14;;;;;;;23.42;12.43;;;9.00;99.90;;;;;;5006776;28;20044;-84
2022/10/12 07:32:41;;;;;;;15.13;7.57;;;9.10;99.90;;;;;;5004227;28;20038;-84
2022/10/12 07:35:08;;;;;;;16.42;7.70;;;9.20;99.90;;;;;;5002978;28;20056;-84
2022/10/12 07:37:35;;;;;;;17.45;6.78;;;9.20;99.90;;;;;;4996570;28;20125;-87
2022/10/12 07:40:02;;;;;;;19.25;6.63;;;9.30;99.90;;;;;;5001010;28;20159;-87
2022/10/12 07:42:30;;;;;;;15.15;6.35;;;9.40;99.90;;;;;;4990093;28;20053;-84
2022/10/12 07:44:57;;;;;;;18.05;7.53;;;9.40;99.90;;;;;;4991391;28;20792;-86
2022/10/12 07:47:24;;;;;;;18.67;7.20;;;9.50;99.90;;;;;;4997534;28;20513;-86
2022/10/12 07:49:51;;;;;;;15.50;6.78;;;9.60;99.90;;;;;;5004306;28;20068;-87
2022/10/12 07:52:18;;;;;;;13.43;6.38;;;9.60;99.90;;;;;;5010616;28;20431;-87
2022/10/12 07:54:45;;;;;;;14.98;6.88;;;9.70;99.90;;;;;;5000390;28;20069;-87
2022/10/12 07:57:12;;;;;;;15.70;6.47;;;9.80;99.90;;;;;;4997159;28;20160;-88
2022/10/12 07:59:40;;;;;;;16.63;6.35;;;9.90;99.90;;;;;;5003676;28;20037;-87
2022/10/12 08:02:07;;;;;;;11.00;6.15;;;9.90;99.90;;;;;;5022844;28;20052;-87
2022/10/12 08:04:34;;;;;;;14.05;5.88;;;10.00;99.90;;;;;;4999502;28;20775;-87
2022/10/12 08:07:00;;;;;;;14.93;6.32;;;10.00;99.90;;;;;;5008808;28;20056;-88
2022/10/12 08:09:27;;;;;;;12.82;5.97;;;10.10;99.90;;;;;;4991968;28;20046;-88
2022/10/12 08:11:55;;;;;;;14.45;5.72;;;10.20;99.90;;;;;;4999103;28;20475;-87
2022/10/12 08:14:22;;;;;;;17.70;6.28;;;10.30;99.90;;;;;;4996631;28;20136;-87
2022/10/12 08:16:50;;;;;;;14.25;5.53;;;10.30;99.90;;;;;;5006825;28;20046;-88
2022/10/12 08:19:17;;;;;;;10.63;5.68;;;10.40;99.90;;;;;;4991959;28;20050;-86
2022/10/12 08:21:44;;;;;;;16.23;5.30;;;10.50;99.90;;;;;;4991805;28;20042;-85
2022/10/12 08:24:12;;;;;;;16.70;5.70;;;10.50;99.90;;;;;;4990104;28;20101;-87
2022/10/12 08:26:39;;;;;;;11.30;5.60;;;10.60;99.90;;;;;;4987221;28;20042;-85
2022/10/12 08:29:07;;;;;;;14.07;5.53;;;10.60;99.90;;;;;;4999939;28;20495;-86
2022/10/12 08:31:34;;;;;;;15.68;5.55;;;10.70;99.90;;;;;;4999872;28;20384;-86
2022/10/12 08:34:02;;;;;;;15.65;5.82;;;10.70;99.90;;;;;;4991299;28;20518;-87
2022/10/12 08:36:29;;;;;;;16.98;5.22;;;10.80;99.90;;;;;;4997534;28;20054;-87
2022/10/12 08:38:56;;;;;;;14.55;6.20;;;10.90;99.90;;;;;;4990097;28;20157;-86
2022/10/12 08:41:40;;;;;;;13.73;5.32;;;10.90;99.90;;;;;;4999535;28;20038;-87
2022/10/12 08:44:19;;;;;;;12.43;5.00;;;11.00;99.90;;;;;;5002739;28;20054;-87
2022/10/12 08:46:46;;;;;;;13.85;4.95;;;11.00;99.90;;;;;;4998580;28;20046;-86
2022/10/12 08:49:17;;;;;;;11.65;4.90;;;11.10;99.90;;;;;;4995681;28;20046;-85
2022/10/12 08:51:46;;;;;;;;;;;11.10;99.90;;;;;;5011229;28;20521;-84
2022/10/12 08:54:14;;;;;;;17.67;5.60;;;11.20;99.90;;;;;;5003625;28;19932;-86
2022/10/12 08:56:41;;;;;;;16.77;5.43;;;11.20;99.90;;;;;;4993693;28;20052;-86
2022/10/12 08:59:12;;;;;;;18.60;5.22;;;11.30;99.90;;;;;;4992356;28;20082;-85
2022/10/12 09:01:51;;;;;;;18.67;6.35;;;11.30;99.90;;;;;;5010126;28;20046;-87
2022/10/12 09:04:34;;;;;;;24.92;5.85;;;11.40;99.90;;;;;;5007423;28;20046;-86
2022/10/12 09:07:08;;;;;;;15.95;5.88;;;11.40;99.90;;;;;;4992072;28;20042;-85
2022/10/12 09:09:44;;;;;;;14.13;4.88;;;11.40;99.90;;;;;;5001349;28;20057;-87
2022/10/12 09:12:20;;;;;;;15.88;5.63;;;11.50;99.90;;;;;;4991294;28;20496;-86
2022/10/12 09:14:47;;;;;;;14.63;4.78;;;11.50;99.90;;;;;;5000278;28;20066;-83
2022/10/12 09:17:25;;;;;;;15.25;5.18;;;11.60;99.90;;;;;;5001904;28;20056;-87
2022/10/12 09:20:01;;;;;;;17.63;5.22;;;11.60;99.90;;;;;;5001667;28;20129;-85
2022/10/12 09:22:29;;;;;;;9.95;4.38;;;11.70;99.90;;;;;;4987680;28;20755;-86
2022/10/12 09:24:57;;;;;;;13.95;4.47;;;11.70;99.90;;;;;;4997524;28;20042;-88
2022/10/12 09:27:24;;;;;;;73.78;8.38;;;11.70;99.90;;;;;;5002634;28;20554;-90
2022/10/12 09:29:56;;;;;;;17.20;5.30;;;11.80;99.90;;;;;;5001117;28;20507;-89
2022/10/12 09:32:37;;;;;;;11.52;4.50;;;11.80;99.90;;;;;;4983475;28;20042;-92
2022/10/12 09:35:07;;;;;;;11.93;4.25;;;11.80;99.90;;;;;;4994662;28;20526;-89
2022/10/12 09:37:35;;;;;;;10.63;4.03;;;11.90;99.90;;;;;;4998502;28;20129;-89
2022/10/12 09:40:03;;;;;;;12.07;4.00;;;11.90;99.90;;;;;;4992922;28;20042;-87
2022/10/12 09:42:29;;;;;;;10.15;4.10;;;12.00;99.90;;;;;;4997052;28;20515;-86
2022/10/12 09:45:01;;;;;;;10.55;3.85;;;12.10;99.90;;;;;;4993686;28;20146;-86
2022/10/12 09:47:32;;;;;;;14.82;5.25;;;12.00;99.90;;;;;;5002731;28;20769;-87
2022/10/12 09:50:01;;;;;;;15.27;5.03;;;12.10;99.90;;;;;;5001598;28;20046;-87
2022/10/12 09:52:31;;;;;;;128.70;13.40;;;12.10;99.90;;;;;;4996260;28;20096;-86
2022/10/12 09:55:00;;;;;;;36.67;6.57;;;12.20;99.90;;;;;;5005382;28;20125;-86
2022/10/12 09:57:30;;;;;;;10.75;3.90;;;12.20;99.90;;;;;;5002126;28;20049;-89
2022/10/12 09:59:58;;;;;;;14.23;4.10;;;12.30;99.90;;;;;;5005482;28;20129;-88
2022/10/12 10:02:26;;;;;;;12.00;4.13;;;12.30;99.90;;;;;;4990412;28;20042;-88
2022/10/12 10:04:54;;;;;;;11.85;5.07;;;12.40;99.90;;;;;;4993775;28;20031;-90
2022/10/12 10:07:26;;;;;;;12.10;4.30;;;12.40;99.90;;;;;;5000814;28;20042;-89
2022/10/12 10:10:17;;;;;;;10.57;3.40;;;12.50;99.90;;;;;;5024569;28;20034;-86
2022/10/12 10:12:49;;;;;;;9.40;3.10;;;12.50;99.90;;;;;;5011973;28;20073;-88
2022/10/12 10:15:25;;;;;;;10.02;3.47;;;12.60;99.90;;;;;;5013578;28;20093;-87
2022/10/12 10:17:54;;;;;;;11.93;3.63;;;12.60;99.90;;;;;;5020106;28;20042;-91
2022/10/12 10:20:26;;;;;;;23.80;4.63;;;12.60;99.90;;;;;;5013123;28;20074;-90
2022/10/12 10:22:53;;;;;;;13.38;3.70;;;12.70;99.90;;;;;;5017007;28;20069;-92
2022/10/12 10:25:23;;;;;;;13.57;3.40;;;12.70;99.90;;;;;;5008242;28;20531;-89
2022/10/12 10:27:51;;;;;;;11.32;2.97;;;12.70;99.90;;;;;;4999326;28;20070;-93
2022/10/12 10:30:22;;;;;;;11.30;3.53;;;12.80;99.90;;;;;;5011274;28;20080;-90
2022/10/12 10:32:49;;;;;;;10.02;2.80;;;12.90;99.90;;;;;;5013227;28;20081;-90
2022/10/12 10:35:21;;;;;;;7.35;2.58;;;12.90;99.90;;;;;;5010385;28;20123;-93
2022/10/12 10:37:48;;;;;;;;;;;13.00;99.90;;;;;;5008985;28;20065;-90
2022/10/12 10:40:19;;;;;;;9.25;2.40;;;13.00;99.90;;;;;;5014287;28;19933;-87
2022/10/12 10:42:50;;;;;;;11.00;2.97;;;13.10;99.90;;;;;;5003096;28;20038;-86
2022/10/12 10:45:23;;;;;;;14.98;3.58;;;13.10;99.90;;;;;;5009702;28;20054;-86
2022/10/12 10:47:53;;;;;;;15.40;3.35;;;13.10;99.90;;;;;;5007587;28;20052;-86
2022/10/12 10:50:25;;;;;;;15.13;3.25;;;13.20;99.90;;;;;;5013010;28;20046;-86
2022/10/12 10:52:55;;;;;;;12.50;2.53;;;13.20;99.90;;;;;;4995589;28;20054;-86
2022/10/12 10:55:25;;;;;;;6.90;1.92;;;13.20;99.90;;;;;;5007272;28;20046;-86
2022/10/12 10:57:59;;;;;;;10.18;2.67;;;13.20;99.90;;;;;;5003376;28;20077;-86
2022/10/12 11:00:28;;;;;;;15.35;2.85;;;13.20;99.90;;;;;;4997737;28;20046;-86
2022/10/12 11:02:57;;;;;;;11.65;2.42;;;13.30;99.90;;;;;;4997279;28;20414;-86
2022/10/12 11:05:27;;;;;;;7.68;2.33;;;13.30;99.90;;;;;;5005312;28;20045;-86
2022/10/12 11:07:56;;;;;;;9.77;2.63;;;13.40;99.90;;;;;;5004618;28;20044;-86
2022/10/12 11:10:27;;;;;;;9.00;1.98;;;13.40;99.90;;;;;;5012730;28;20078;-86
2022/10/12 11:12:59;;;;;;;10.98;3.03;;;13.50;99.90;;;;;;5012698;28;20092;-88
2022/10/12 11:15:33;;;;;;;12.57;2.28;;;13.50;99.90;;;;;;4990709;28;20060;-87
2022/10/12 11:18:06;;;;;;;17.95;2.63;;;13.50;99.90;;;;;;4998119;28;20600;-86
2022/10/12 11:20:50;;;;;;;14.05;2.67;;;13.60;99.90;;;;;;4990314;28;20054;-88
2022/10/12 11:23:28;;;;;;;20.05;2.95;;;13.60;99.90;;;;;;5003254;28;20038;-88
2022/10/12 11:26:05;;;;;;;12.10;2.50;;;13.60;99.90;;;;;;5011055;28;20060;-88
2022/10/12 11:28:34;;;;;;;14.35;2.50;;;13.60;99.90;;;;;;5001257;28;20137;-88
2022/10/12 11:31:05;;;;;;;9.93;2.70;;;13.70;99.90;;;;;;5010155;28;20120;-88
2022/10/12 11:33:37;;;;;;;12.73;3.42;;;13.70;99.90;;;;;;5013640;28;20052;-88
2022/10/12 11:36:07;;;;;;;8.20;2.88;;;13.70;99.90;;;;;;5013731;28;20700;-88
2022/10/12 11:38:38;;;;;;;12.05;3.03;;;13.80;99.90;;;;;;5001187;28;20042;-88
2022/10/12 11:41:07;;;;;;;;;;;13.80;99.90;;;;;;5011064;28;20050;-88
2022/10/12 11:43:41;;;;;;;10.73;3.30;;;13.80;99.90;;;;;;5013313;28;19926;-88
2022/10/12 11:46:12;;;;;;;14.07;4.60;;;13.80;99.90;;;;;;5013052;28;20050;-88
2022/10/12 11:48:40;;;;;;;;;;;13.90;99.90;;;;;;5000197;28;20042;-88
2022/10/12 11:51:07;;;;;;;7.13;2.50;;;13.90;99.90;;;;;;4997724;28;19926;-89
2022/10/12 11:53:40;;;;;;;7.72;2.70;;;13.90;99.90;;;;;;5002060;28;20046;-88
2022/10/12 11:56:11;;;;;;;13.38;3.25;;;14.00;99.90;;;;;;5006908;28;20089;-88
2022/10/12 11:58:41;;;;;;;18.25;4.13;;;13.90;99.90;;;;;;5003402;28;20057;-88
2022/10/12 12:01:19;;;;;;;11.23;3.08;;;14.00;99.90;;;;;;4996549;28;20110;-89
2022/10/12 12:04:22;;;;;;;11.50;4.10;;;14.00;99.90;;;;;;4997279;28;20084;-90
2022/10/12 12:06:52;;;;;;;9.60;3.83;;;14.00;99.90;;;;;;4996098;28;20581;-89
2022/10/12 12:09:22;;;;;;;9.90;2.83;;;14.10;99.90;;;;;;5008608;28;20045;-88
2022/10/12 12:11:49;;;;;;;10.43;2.47;;;14.20;99.90;;;;;;5009539;28;20041;-88
2022/10/12 12:14:46;;;;;;;10.32;2.33;;;14.20;99.90;;;;;;5009739;28;20059;-88
2022/10/12 12:17:22;;;;;;;75.68;7.25;;;14.20;99.90;;;;;;5006764;28;20074;-88
2022/10/12 12:19:50;;;;;;;14.52;3.35;;;14.40;99.90;;;;;;5003659;28;20042;-87
2022/10/12 12:22:28;;;;;;;16.15;3.15;;;14.20;99.90;;;;;;5011849;28;20042;-89
2022/10/12 12:25:05;;;;;;;11.43;2.78;;;14.20;99.90;;;;;;5012137;28;20045;-88
2022/10/12 12:27:35;;;;;;;9.57;2.90;;;14.30;99.90;;;;;;5003786;28;20063;-88
2022/10/12 12:30:19;;;;;;;9.65;2.90;;;14.40;99.90;;;;;;5003375;28;20040;-88
2022/10/12 12:32:49;;;;;;;11.40;2.33;;;14.30;99.90;;;;;;5012026;28;20046;-89
2022/10/12 12:35:25;;;;;;;10.35;3.53;;;14.40;99.90;;;;;;5003469;28;20503;-89
2022/10/12 12:38:17;;;;;;;12.65;2.83;;;14.40;99.90;;;;;;5003279;28;20045;-89
2022/10/12 12:40:54;;;;;;;;;;;14.50;99.90;;;;;;5012032;28;20054;-88
2022/10/12 12:43:52;;;;;;;6.07;2.42;;;14.70;99.90;;;;;;5011748;28;19975;-89
2022/10/12 12:46:21;;;;;;;8.23;2.67;;;14.40;99.90;;;;;;5001051;28;20460;-89
2022/10/12 12:49:02;;;;;;;7.47;2.25;;;14.40;99.90;;;;;;5006759;28;20060;-89
2022/10/12 12:51:37;;;;;;;10.80;3.10;;;14.40;99.90;;;;;;5002106;28;20046;-92
2022/10/12 12:54:06;;;;;;;10.65;2.92;;;14.50;99.90;;;;;;5003368;28;20129;-89
2022/10/12 12:56:39;;;;;;;10.25;3.05;;;14.40;99.90;;;;;;4996995;28;20123;-85
2022/10/12 12:59:31;;;;;;;10.38;3.17;;;14.50;99.90;;;;;;4996101;28;20133;-89